sensor_id;sensor_type;location;lat;lon;timestamp;P1;durP1;ratioP1;P2;durP2;ratioP2
28547;SDS011;15750;49.600;8.746;2022-11-20T00:01:05;7.10;;;6.33;;
28547;SDS011;15750;49.600;8.746;2022-11-20T00:03:55;10.80;;;7.60;;
28547;SDS011;15750;49.600;8.746;2022-11-20T00:06:43;8.33;;;7.47;;
28547;SDS011;15750;49.600;8.746;2022-11-20T00:09:31;11.73;;;8.30;;
28547;SDS011;15750;49.600;8.746;2022-11-20T00:12:18;10.07;;;8.57;;
28547;SDS011;15750;49.600;8.746;2022-11-20T00:15:08;9.67;;;8.67;;
28547;SDS011;15750;49.600;8.746;2022-11-20T00:17:56;9.00;;;7.23;;
28547;SDS011;15750;49.600;8.746;2022-11-20T00:20:43;7.93;;;7.07;;
28547;SDS011;15750;49.600;8.746;2022-11-20T00:23:30;7.23;;;6.53;;
28547;SDS011;15750;49.600;8.746;2022-11-20T00:26:18;7.67;;;6.87;;
28547;SDS011;15750;49.600;8.746;2022-11-20T00:29:08;7.93;;;7.10;;
28547;SDS011;15750;49.600;8.746;2022-11-20T00:31:57;7.70;;;6.43;;
28547;SDS011;15750;49.600;8.746;2022-11-20T00:34:44;7.50;;;6.73;;
28547;SDS011;15750;49.600;8.746;2022-11-20T00:37:31;7.80;;;6.73;;
28547;SDS011;15750;49.600;8.746;2022-11-20T00:40:18;6.83;;;5.70;;
28547;SDS011;15750;49.600;8.746;2022-11-20T00:43:06;7.23;;;6.50;;
28547;SDS011;15750;49.600;8.746;2022-11-20T00:45:56;7.07;;;6.37;;
28547;SDS011;15750;49.600;8.746;2022-11-20T00:48:45;7.40;;;6.60;;
28547;SDS011;15750;49.600;8.746;2022-11-20T00:51:32;8.37;;;6.83;;
28547;SDS011;15750;49.600;8.746;2022-11-20T00:54:19;7.00;;;6.30;;
28547;SDS011;15750;49.600;8.746;2022-11-20T00:57:07;6.87;;;6.03;;
28547;SDS011;15750;49.600;8.746;2022-11-20T00:59:54;7.70;;;6.20;;
28547;SDS011;15750;49.600;8.746;2022-11-20T01:02:41;6.40;;;5.80;;
28547;SDS011;15750;49.600;8.746;2022-11-20T01:05:33;5.37;;;4.87;;
28547;SDS011;15750;49.600;8.746;2022-11-20T01:08:21;6.63;;;5.97;;
28547;SDS011;15750;49.600;8.746;2022-11-20T01:11:09;5.83;;;5.27;;
28547;SDS011;15750;49.600;8.746;2022-11-20T01:13:59;5.33;;;4.83;;
28547;SDS011;15750;49.600;8.746;2022-11-20T01:16:50;6.47;;;5.37;;
28547;SDS011;15750;49.600;8.746;2022-11-20T01:19:38;4.60;;;4.20;;
28547;SDS011;15750;49.600;8.746;2022-11-20T01:22:28;4.67;;;4.17;;
28547;SDS011;15750;49.600;8.746;2022-11-20T01:25:15;4.93;;;4.00;;
28547;SDS011;15750;49.600;8.746;2022-11-20T01:28:04;3.63;;;3.30;;
28547;SDS011;15750;49.600;8.746;2022-11-20T01:30:51;4.40;;;4.00;;
28547;SDS011;15750;49.600;8.746;2022-11-20T01:33:38;4.73;;;3.93;;
28547;SDS011;15750;49.600;8.746;2022-11-20T01:36:27;4.60;;;4.03;;
28547;SDS011;15750;49.600;8.746;2022-11-20T01:39:18;4.43;;;3.77;;
28547;SDS011;15750;49.600;8.746;2022-11-20T01:42:08;3.60;;;3.30;;
28547;SDS011;15750;49.600;8.746;2022-11-20T01:48:56;3.47;;;3.17;;
28547;SDS011;15750;49.600;8.746;2022-11-20T01:51:49;3.50;;;3.20;;
28547;SDS011;15750;49.600;8.746;2022-11-20T01:54:41;3.40;;;3.10;;
28547;SDS011;15750;49.600;8.746;2022-11-20T01:57:33;3.10;;;2.80;;
28547;SDS011;15750;49.600;8.746;2022-11-20T02:00:21;3.13;;;2.83;;
28547;SDS011;15750;49.600;8.746;2022-11-20T02:03:09;3.87;;;3.43;;
28547;SDS011;15750;49.600;8.746;2022-11-20T02:06:02;2.77;;;2.57;;
28547;SDS011;15750;49.600;8.746;2022-11-20T02:08:56;4.80;;;3.57;;
28547;SDS011;15750;49.600;8.746;2022-11-20T02:11:45;3.90;;;3.60;;
28547;SDS011;15750;49.600;8.746;2022-11-20T02:14:32;5.17;;;3.83;;
28547;SDS011;15750;49.600;8.746;2022-11-20T02:17:19;4.57;;;4.17;;
28547;SDS011;15750;49.600;8.746;2022-11-20T02:20:07;5.67;;;4.30;;
28547;SDS011;15750;49.600;8.746;2022-11-20T02:22:56;4.77;;;4.37;;
28547;SDS011;15750;49.600;8.746;2022-11-20T02:25:50;6.63;;;4.33;;
28547;SDS011;15750;49.600;8.746;2022-11-20T02:28:39;4.03;;;3.63;;
28547;SDS011;15750;49.600;8.746;2022-11-20T02:31:26;4.13;;;3.80;;
28547;SDS011;15750;49.600;8.746;2022-11-20T02:34:14;3.97;;;3.57;;
28547;SDS011;15750;49.600;8.746;2022-11-20T02:37:01;4.20;;;3.80;;
28547;SDS011;15750;49.600;8.746;2022-11-20T02:39:48;4.53;;;4.07;;
28547;SDS011;15750;49.600;8.746;2022-11-20T02:42:38;3.87;;;3.53;;
28547;SDS011;15750;49.600;8.746;2022-11-20T02:45:26;4.47;;;4.03;;
28547;SDS011;15750;49.600;8.746;2022-11-20T02:48:14;4.40;;;4.00;;
28547;SDS011;15750;49.600;8.746;2022-11-20T02:51:01;4.13;;;3.73;;
28547;SDS011;15750;49.600;8.746;2022-11-20T02:53:48;4.27;;;3.87;;
28547;SDS011;15750;49.600;8.746;2022-11-20T02:56:37;4.63;;;4.23;;
28547;SDS011;15750;49.600;8.746;2022-11-20T02:59:26;4.93;;;4.20;;
28547;SDS011;15750;49.600;8.746;2022-11-20T03:02:13;4.10;;;3.73;;
28547;SDS011;15750;49.600;8.746;2022-11-20T03:05:01;5.10;;;3.93;;
28547;SDS011;15750;49.600;8.746;2022-11-20T03:07:49;4.47;;;3.97;;
28547;SDS011;15750;49.600;8.746;2022-11-20T03:10:36;4.30;;;3.90;;
28547;SDS011;15750;49.600;8.746;2022-11-20T03:13:24;5.10;;;4.60;;
28547;SDS011;15750;49.600;8.746;2022-11-20T03:16:13;4.67;;;4.27;;
28547;SDS011;15750;49.600;8.746;2022-11-20T03:19:03;4.27;;;3.87;;
28547;SDS011;15750;49.600;8.746;2022-11-20T03:21:51;3.93;;;3.53;;
28547;SDS011;15750;49.600;8.746;2022-11-20T03:24:38;4.90;;;4.20;;
28547;SDS011;15750;49.600;8.746;2022-11-20T03:27:25;4.30;;;3.90;;
28547;SDS011;15750;49.600;8.746;2022-11-20T03:30:12;4.00;;;3.70;;
28547;SDS011;15750;49.600;8.746;2022-11-20T03:33:02;3.83;;;3.53;;
28547;SDS011;15750;49.600;8.746;2022-11-20T03:35:49;4.10;;;3.70;;
28547;SDS011;15750;49.600;8.746;2022-11-20T03:38:36;4.60;;;3.97;;
28547;SDS011;15750;49.600;8.746;2022-11-20T03:41:25;4.57;;;4.17;;
28547;SDS011;15750;49.600;8.746;2022-11-20T03:44:14;3.97;;;3.60;;
28547;SDS011;15750;49.600;8.746;2022-11-20T03:47:01;4.03;;;3.63;;
28547;SDS011;15750;49.600;8.746;2022-11-20T03:49:49;8.40;;;4.23;;
28547;SDS011;15750;49.600;8.746;2022-11-20T03:52:37;4.67;;;4.07;;
28547;SDS011;15750;49.600;8.746;2022-11-20T03:55:24;3.77;;;3.43;;
28547;SDS011;15750;49.600;8.746;2022-11-20T03:58:11;4.27;;;3.87;;
28547;SDS011;15750;49.600;8.746;2022-11-20T04:01:03;4.80;;;4.27;;
28547;SDS011;15750;49.600;8.746;2022-11-20T04:03:52;4.47;;;3.70;;
28547;SDS011;15750;49.600;8.746;2022-11-20T04:06:42;4.43;;;3.83;;
28547;SDS011;15750;49.600;8.746;2022-11-20T04:09:29;4.30;;;3.77;;
28547;SDS011;15750;49.600;8.746;2022-11-20T04:12:16;5.67;;;4.90;;
28547;SDS011;15750;49.600;8.746;2022-11-20T04:15:03;5.70;;;4.80;;
28547;SDS011;15750;49.600;8.746;2022-11-20T04:17:51;7.10;;;6.33;;
28547;SDS011;15750;49.600;8.746;2022-11-20T04:20:40;6.13;;;5.53;;
28547;SDS011;15750;49.600;8.746;2022-11-20T04:23:28;5.93;;;5.43;;
28547;SDS011;15750;49.600;8.746;2022-11-20T04:26:15;6.57;;;5.87;;
28547;SDS011;15750;49.600;8.746;2022-11-20T04:29:03;7.03;;;6.33;;
28547;SDS011;15750;49.600;8.746;2022-11-20T04:31:50;6.83;;;6.13;;
28547;SDS011;15750;49.600;8.746;2022-11-20T04:34:37;7.57;;;6.87;;
28547;SDS011;15750;49.600;8.746;2022-11-20T04:37:24;7.33;;;6.63;;
28547;SDS011;15750;49.600;8.746;2022-11-20T04:40:13;7.83;;;6.57;;
28547;SDS011;15750;49.600;8.746;2022-11-20T04:43:00;7.93;;;6.80;;
28547;SDS011;15750;49.600;8.746;2022-11-20T04:45:50;7.60;;;6.80;;
28547;SDS011;15750;49.600;8.746;2022-11-20T04:48:37;6.87;;;6.27;;
28547;SDS011;15750;49.600;8.746;2022-11-20T04:51:24;7.57;;;6.83;;
28547;SDS011;15750;49.600;8.746;2022-11-20T04:54:12;7.63;;;6.87;;
28547;SDS011;15750;49.600;8.746;2022-11-20T04:57:01;6.43;;;5.83;;
28547;SDS011;15750;49.600;8.746;2022-11-20T04:59:48;6.97;;;6.27;;
28547;SDS011;15750;49.600;8.746;2022-11-20T05:02:36;8.90;;;6.73;;
28547;SDS011;15750;49.600;8.746;2022-11-20T05:05:23;7.50;;;6.80;;
28547;SDS011;15750;49.600;8.746;2022-11-20T05:08:10;6.80;;;6.10;;
28547;SDS011;15750;49.600;8.746;2022-11-20T05:10:59;8.17;;;6.60;;
28547;SDS011;15750;49.600;8.746;2022-11-20T05:13:49;7.10;;;6.40;;
28547;SDS011;15750;49.600;8.746;2022-11-20T05:16:38;8.00;;;7.20;;
28547;SDS011;15750;49.600;8.746;2022-11-20T05:19:25;9.03;;;6.87;;
28547;SDS011;15750;49.600;8.746;2022-11-20T05:22:12;7.60;;;6.70;;
28547;SDS011;15750;49.600;8.746;2022-11-20T05:24:59;7.33;;;6.43;;
28547;SDS011;15750;49.600;8.746;2022-11-20T05:27:46;8.27;;;6.83;;
28547;SDS011;15750;49.600;8.746;2022-11-20T05:30:35;7.37;;;6.67;;
28547;SDS011;15750;49.600;8.746;2022-11-20T05:33:22;7.27;;;5.87;;
28547;SDS011;15750;49.600;8.746;2022-11-20T05:36:09;6.83;;;6.13;;
28547;SDS011;15750;49.600;8.746;2022-11-20T05:38:58;7.47;;;6.70;;
28547;SDS011;15750;49.600;8.746;2022-11-20T05:41:46;7.20;;;6.50;;
28547;SDS011;15750;49.600;8.746;2022-11-20T05:44:53;6.80;;;6.10;;
28547;SDS011;15750;49.600;8.746;2022-11-20T05:47:42;6.97;;;6.27;;
28547;SDS011;15750;49.600;8.746;2022-11-20T05:50:29;6.77;;;6.07;;
28547;SDS011;15750;49.600;8.746;2022-11-20T05:53:16;7.30;;;6.23;;
28547;SDS011;15750;49.600;8.746;2022-11-20T05:56:04;7.10;;;6.40;;
28547;SDS011;15750;49.600;8.746;2022-11-20T05:58:55;6.83;;;6.17;;
28547;SDS011;15750;49.600;8.746;2022-11-20T06:01:43;6.90;;;5.80;;
28547;SDS011;15750;49.600;8.746;2022-11-20T06:04:31;7.47;;;6.67;;
28547;SDS011;15750;49.600;8.746;2022-11-20T06:07:18;7.17;;;6.47;;
28547;SDS011;15750;49.600;8.746;2022-11-20T06:10:05;7.20;;;6.43;;
28547;SDS011;15750;49.600;8.746;2022-11-20T06:12:53;7.53;;;6.73;;
28547;SDS011;15750;49.600;8.746;2022-11-20T06:15:47;7.93;;;7.13;;
28547;SDS011;15750;49.600;8.746;2022-11-20T06:18:35;9.77;;;6.90;;
28547;SDS011;15750;49.600;8.746;2022-11-20T06:21:24;7.43;;;6.63;;
28547;SDS011;15750;49.600;8.746;2022-11-20T06:24:11;8.03;;;6.97;;
28547;SDS011;15750;49.600;8.746;2022-11-20T06:26:59;7.40;;;6.67;;
28547;SDS011;15750;49.600;8.746;2022-11-20T06:29:46;7.70;;;6.90;;
28547;SDS011;15750;49.600;8.746;2022-11-20T06:32:33;8.90;;;7.43;;
28547;SDS011;15750;49.600;8.746;2022-11-20T06:35:20;7.80;;;7.00;;
28547;SDS011;15750;49.600;8.746;2022-11-20T06:38:09;8.83;;;6.63;;
28547;SDS011;15750;49.600;8.746;2022-11-20T06:40:56;7.23;;;6.53;;
28547;SDS011;15750;49.600;8.746;2022-11-20T06:43:44;8.40;;;7.53;;
28547;SDS011;15750;49.600;8.746;2022-11-20T06:46:31;7.73;;;6.93;;
28547;SDS011;15750;49.600;8.746;2022-11-20T06:49:18;7.97;;;7.13;;
28547;SDS011;15750;49.600;8.746;2022-11-20T06:52:06;7.90;;;7.10;;
28547;SDS011;15750;49.600;8.746;2022-11-20T06:54:55;8.37;;;6.67;;
28547;SDS011;15750;49.600;8.746;2022-11-20T06:57:42;7.30;;;6.60;;
28547;SDS011;15750;49.600;8.746;2022-11-20T07:00:29;8.00;;;7.20;;
28547;SDS011;15750;49.600;8.746;2022-11-20T07:03:17;8.43;;;7.50;;
28547;SDS011;15750;49.600;8.746;2022-11-20T07:05:45;8.03;;;6.93;;
28547;SDS011;15750;49.600;8.746;2022-11-20T07:08:14;9.33;;;7.67;;
28547;SDS011;15750;49.600;8.746;2022-11-20T07:10:44;7.97;;;7.17;;
28547;SDS011;15750;49.600;8.746;2022-11-20T07:13:13;8.50;;;7.03;;
28547;SDS011;15750;49.600;8.746;2022-11-20T07:15:42;7.27;;;6.53;;
28547;SDS011;15750;49.600;8.746;2022-11-20T07:18:11;7.70;;;6.90;;
28547;SDS011;15750;49.600;8.746;2022-11-20T07:20:39;12.00;;;6.97;;
28547;SDS011;15750;49.600;8.746;2022-11-20T07:23:08;7.60;;;6.73;;
28547;SDS011;15750;49.600;8.746;2022-11-20T07:25:37;7.73;;;6.90;;
28547;SDS011;15750;49.600;8.746;2022-11-20T07:28:07;7.43;;;6.43;;
28547;SDS011;15750;49.600;8.746;2022-11-20T07:30:37;7.67;;;6.83;;
28547;SDS011;15750;49.600;8.746;2022-11-20T07:33:06;9.23;;;6.37;;
28547;SDS011;15750;49.600;8.746;2022-11-20T07:35:34;7.50;;;6.73;;
28547;SDS011;15750;49.600;8.746;2022-11-20T07:38:03;8.13;;;7.33;;
28547;SDS011;15750;49.600;8.746;2022-11-20T07:40:32;7.43;;;6.63;;
28547;SDS011;15750;49.600;8.746;2022-11-20T07:43:00;7.10;;;6.40;;
28547;SDS011;15750;49.600;8.746;2022-11-20T07:45:30;7.60;;;6.60;;
28547;SDS011;15750;49.600;8.746;2022-11-20T07:47:59;7.10;;;6.40;;
28547;SDS011;15750;49.600;8.746;2022-11-20T07:50:28;7.47;;;6.67;;
28547;SDS011;15750;49.600;8.746;2022-11-20T07:53:02;8.93;;;6.77;;
28547;SDS011;15750;49.600;8.746;2022-11-20T07:55:32;8.33;;;7.50;;
28547;SDS011;15750;49.600;8.746;2022-11-20T07:58:01;8.33;;;7.50;;
28547;SDS011;15750;49.600;8.746;2022-11-20T08:00:31;8.93;;;7.50;;
28547;SDS011;15750;49.600;8.746;2022-11-20T08:03:02;9.07;;;7.37;;
28547;SDS011;15750;49.600;8.746;2022-11-20T08:05:31;8.80;;;7.90;;
28547;SDS011;15750;49.600;8.746;2022-11-20T08:08:00;9.93;;;7.57;;
28547;SDS011;15750;49.600;8.746;2022-11-20T08:10:29;7.93;;;7.10;;
28547;SDS011;15750;49.600;8.746;2022-11-20T08:12:59;8.07;;;7.27;;
28547;SDS011;15750;49.600;8.746;2022-11-20T08:15:49;8.40;;;7.30;;
28547;SDS011;15750;49.600;8.746;2022-11-20T08:18:18;9.37;;;8.27;;
28547;SDS011;15750;49.600;8.746;2022-11-20T08:21:02;10.27;;;9.17;;
28547;SDS011;15750;49.600;8.746;2022-11-20T08:23:32;9.43;;;8.43;;
28547;SDS011;15750;49.600;8.746;2022-11-20T08:26:00;9.37;;;8.40;;
28547;SDS011;15750;49.600;8.746;2022-11-20T08:28:29;10.47;;;9.37;;
28547;SDS011;15750;49.600;8.746;2022-11-20T08:31:00;11.60;;;9.37;;
28547;SDS011;15750;49.600;8.746;2022-11-20T08:33:30;11.07;;;8.77;;
28547;SDS011;15750;49.600;8.746;2022-11-20T08:36:00;10.73;;;9.13;;
28547;SDS011;15750;49.600;8.746;2022-11-20T08:38:30;9.80;;;8.23;;
28547;SDS011;15750;49.600;8.746;2022-11-20T08:41:00;9.07;;;7.90;;
28547;SDS011;15750;49.600;8.746;2022-11-20T08:43:48;9.93;;;8.90;;
28547;SDS011;15750;49.600;8.746;2022-11-20T08:46:19;10.83;;;9.73;;
28547;SDS011;15750;49.600;8.746;2022-11-20T08:48:48;10.60;;;9.50;;
28547;SDS011;15750;49.600;8.746;2022-11-20T08:51:17;12.90;;;10.57;;
28547;SDS011;15750;49.600;8.746;2022-11-20T08:53:47;11.90;;;10.17;;
28547;SDS011;15750;49.600;8.746;2022-11-20T08:56:16;12.47;;;10.30;;
28547;SDS011;15750;49.600;8.746;2022-11-20T08:58:45;11.83;;;10.47;;
28547;SDS011;15750;49.600;8.746;2022-11-20T09:01:35;11.37;;;10.10;;
28547;SDS011;15750;49.600;8.746;2022-11-20T09:04:04;26.80;;;21.60;;
28547;SDS011;15750;49.600;8.746;2022-11-20T09:06:33;19.30;;;16.93;;
28547;SDS011;15750;49.600;8.746;2022-11-20T09:09:01;15.07;;;12.90;;
28547;SDS011;15750;49.600;8.746;2022-11-20T09:11:32;13.60;;;11.67;;
28547;SDS011;15750;49.600;8.746;2022-11-20T09:14:02;12.53;;;10.67;;
28547;SDS011;15750;49.600;8.746;2022-11-20T09:16:31;14.10;;;11.40;;
28547;SDS011;15750;49.600;8.746;2022-11-20T09:19:01;14.53;;;11.90;;
28547;SDS011;15750;49.600;8.746;2022-11-20T09:21:50;12.40;;;11.10;;
28547;SDS011;15750;49.600;8.746;2022-11-20T09:24:25;13.50;;;11.20;;
28547;SDS011;15750;49.600;8.746;2022-11-20T09:26:54;14.17;;;11.90;;
28547;SDS011;15750;49.600;8.746;2022-11-20T09:29:23;11.10;;;9.97;;
28547;SDS011;15750;49.600;8.746;2022-11-20T09:31:51;12.97;;;11.50;;
28547;SDS011;15750;49.600;8.746;2022-11-20T09:34:21;11.80;;;10.00;;
28547;SDS011;15750;49.600;8.746;2022-11-20T09:36:50;11.73;;;10.53;;
28547;SDS011;15750;49.600;8.746;2022-11-20T09:39:19;11.97;;;10.67;;
28547;SDS011;15750;49.600;8.746;2022-11-20T09:42:04;10.83;;;9.63;;
28547;SDS011;15750;49.600;8.746;2022-11-20T09:48:04;11.10;;;9.63;;
28547;SDS011;15750;49.600;8.746;2022-11-20T09:50:51;11.63;;;9.40;;
28547;SDS011;15750;49.600;8.746;2022-11-20T09:53:29;11.30;;;9.57;;
28547;SDS011;15750;49.600;8.746;2022-11-20T09:56:03;10.27;;;9.27;;
28547;SDS011;15750;49.600;8.746;2022-11-20T09:58:33;11.87;;;10.63;;
28547;SDS011;15750;49.600;8.746;2022-11-20T10:01:10;12.27;;;10.43;;
28547;SDS011;15750;49.600;8.746;2022-11-20T10:03:45;14.37;;;12.10;;
28547;SDS011;15750;49.600;8.746;2022-11-20T10:06:27;13.50;;;11.30;;
28547;SDS011;15750;49.600;8.746;2022-11-20T10:09:05;13.43;;;11.10;;
28547;SDS011;15750;49.600;8.746;2022-11-20T10:11:48;15.57;;;12.70;;
28547;SDS011;15750;49.600;8.746;2022-11-20T10:14:34;17.63;;;13.97;;
28547;SDS011;15750;49.600;8.746;2022-11-20T10:17:19;15.03;;;12.30;;
28547;SDS011;15750;49.600;8.746;2022-11-20T10:20:06;11.63;;;10.03;;
28547;SDS011;15750;49.600;8.746;2022-11-20T10:22:49;13.63;;;11.07;;
28547;SDS011;15750;49.600;8.746;2022-11-20T10:25:34;12.60;;;10.70;;
28547;SDS011;15750;49.600;8.746;2022-11-20T10:28:14;14.73;;;12.80;;
28547;SDS011;15750;49.600;8.746;2022-11-20T10:30:55;16.07;;;12.87;;
28547;SDS011;15750;49.600;8.746;2022-11-20T10:33:29;18.13;;;14.23;;
28547;SDS011;15750;49.600;8.746;2022-11-20T10:36:24;18.13;;;13.73;;
28547;SDS011;15750;49.600;8.746;2022-11-20T10:38:59;19.73;;;13.60;;
28547;SDS011;15750;49.600;8.746;2022-11-20T10:41:34;42.93;;;36.03;;
28547;SDS011;15750;49.600;8.746;2022-11-20T10:44:10;33.83;;;28.43;;
28547;SDS011;15750;49.600;8.746;2022-11-20T10:47:04;20.40;;;17.30;;
28547;SDS011;15750;49.600;8.746;2022-11-20T10:49:39;17.47;;;14.57;;
28547;SDS011;15750;49.600;8.746;2022-11-20T10:52:10;19.33;;;14.93;;
28547;SDS011;15750;49.600;8.746;2022-11-20T10:54:49;17.20;;;14.70;;
28547;SDS011;15750;49.600;8.746;2022-11-20T10:57:34;19.93;;;17.23;;
28547;SDS011;15750;49.600;8.746;2022-11-20T11:00:20;15.80;;;13.47;;
28547;SDS011;15750;49.600;8.746;2022-11-20T11:02:49;15.07;;;12.27;;
28547;SDS011;15750;49.600;8.746;2022-11-20T11:05:25;12.83;;;10.33;;
28547;SDS011;15750;49.600;8.746;2022-11-20T11:08:03;17.63;;;11.60;;
28547;SDS011;15750;49.600;8.746;2022-11-20T11:10:43;15.20;;;12.00;;
28547;SDS011;15750;49.600;8.746;2022-11-20T11:13:21;14.17;;;11.13;;
28547;SDS011;15750;49.600;8.746;2022-11-20T11:15:50;14.37;;;11.13;;
28547;SDS011;15750;49.600;8.746;2022-11-20T11:18:23;12.23;;;10.20;;
28547;SDS011;15750;49.600;8.746;2022-11-20T11:20:53;14.90;;;11.63;;
28547;SDS011;15750;49.600;8.746;2022-11-20T11:23:29;13.30;;;10.70;;
28547;SDS011;15750;49.600;8.746;2022-11-20T11:26:03;14.37;;;11.63;;
28547;SDS011;15750;49.600;8.746;2022-11-20T11:28:34;13.47;;;10.97;;
28547;SDS011;15750;49.600;8.746;2022-11-20T11:31:03;12.93;;;10.67;;
28547;SDS011;15750;49.600;8.746;2022-11-20T11:33:32;12.83;;;9.83;;
28547;SDS011;15750;49.600;8.746;2022-11-20T11:36:01;12.33;;;10.50;;
28547;SDS011;15750;49.600;8.746;2022-11-20T11:38:44;12.20;;;9.83;;
28547;SDS011;15750;49.600;8.746;2022-11-20T11:41:18;10.60;;;9.00;;
28547;SDS011;15750;49.600;8.746;2022-11-20T11:43:52;10.13;;;8.50;;
28547;SDS011;15750;49.600;8.746;2022-11-20T11:46:40;11.87;;;9.07;;
28547;SDS011;15750;49.600;8.746;2022-11-20T11:49:19;10.80;;;9.70;;
28547;SDS011;15750;49.600;8.746;2022-11-20T11:51:57;11.03;;;9.43;;
28547;SDS011;15750;49.600;8.746;2022-11-20T11:54:36;11.50;;;9.50;;
28547;SDS011;15750;49.600;8.746;2022-11-20T11:57:12;10.10;;;8.77;;
28547;SDS011;15750;49.600;8.746;2022-11-20T11:59:51;11.57;;;9.27;;
28547;SDS011;15750;49.600;8.746;2022-11-20T12:02:32;10.67;;;8.73;;
28547;SDS011;15750;49.600;8.746;2022-11-20T12:05:14;10.23;;;8.47;;
28547;SDS011;15750;49.600;8.746;2022-11-20T12:07:49;9.30;;;8.27;;
28547;SDS011;15750;49.600;8.746;2022-11-20T12:10:23;12.07;;;9.67;;
28547;SDS011;15750;49.600;8.746;2022-11-20T12:13:14;9.63;;;8.20;;
28547;SDS011;15750;49.600;8.746;2022-11-20T12:15:50;10.03;;;8.50;;
28547;SDS011;15750;49.600;8.746;2022-11-20T12:18:20;8.60;;;7.63;;
28547;SDS011;15750;49.600;8.746;2022-11-20T12:20:53;11.00;;;8.60;;
28547;SDS011;15750;49.600;8.746;2022-11-20T12:23:35;11.40;;;8.67;;
28547;SDS011;15750;49.600;8.746;2022-11-20T12:26:15;10.30;;;8.87;;
28547;SDS011;15750;49.600;8.746;2022-11-20T12:28:59;10.17;;;8.97;;
28547;SDS011;15750;49.600;8.746;2022-11-20T12:31:44;9.97;;;8.73;;
28547;SDS011;15750;49.600;8.746;2022-11-20T12:34:44;11.17;;;9.30;;
28547;SDS011;15750;49.600;8.746;2022-11-20T12:37:26;11.97;;;8.90;;
28547;SDS011;15750;49.600;8.746;2022-11-20T12:40:11;10.63;;;9.20;;
28547;SDS011;15750;49.600;8.746;2022-11-20T12:43:01;10.13;;;8.60;;
28547;SDS011;15750;49.600;8.746;2022-11-20T12:46:05;11.07;;;9.10;;
28547;SDS011;15750;49.600;8.746;2022-11-20T12:52:03;11.33;;;8.97;;
28547;SDS011;15750;49.600;8.746;2022-11-20T12:57:54;10.70;;;9.27;;
28547;SDS011;15750;49.600;8.746;2022-11-20T13:00:28;12.27;;;10.60;;
28547;SDS011;15750;49.600;8.746;2022-11-20T13:03:16;17.57;;;12.93;;
28547;SDS011;15750;49.600;8.746;2022-11-20T13:06:10;15.93;;;12.80;;
28547;SDS011;15750;49.600;8.746;2022-11-20T13:08:45;21.97;;;16.93;;
28547;SDS011;15750;49.600;8.746;2022-11-20T13:11:21;28.20;;;19.97;;
28547;SDS011;15750;49.600;8.746;2022-11-20T13:14:09;28.73;;;19.70;;
28547;SDS011;15750;49.600;8.746;2022-11-20T13:16:48;35.77;;;23.00;;
28547;SDS011;15750;49.600;8.746;2022-11-20T13:19:23;18.83;;;14.17;;
28547;SDS011;15750;49.600;8.746;2022-11-20T13:21:53;18.20;;;14.27;;
28547;SDS011;15750;49.600;8.746;2022-11-20T13:24:25;22.00;;;18.03;;
28547;SDS011;15750;49.600;8.746;2022-11-20T13:27:00;14.90;;;13.30;;
28547;SDS011;15750;49.600;8.746;2022-11-20T13:29:46;12.80;;;10.60;;
28547;SDS011;15750;49.600;8.746;2022-11-20T13:32:27;12.30;;;9.77;;
28547;SDS011;15750;49.600;8.746;2022-11-20T13:35:00;10.53;;;9.43;;
28547;SDS011;15750;49.600;8.746;2022-11-20T13:37:33;11.30;;;8.43;;
28547;SDS011;15750;49.600;8.746;2022-11-20T13:40:22;8.63;;;7.73;;
28547;SDS011;15750;49.600;8.746;2022-11-20T13:42:54;9.13;;;8.20;;
28547;SDS011;15750;49.600;8.746;2022-11-20T13:45:29;8.87;;;7.97;;
28547;SDS011;15750;49.600;8.746;2022-11-20T13:48:02;12.97;;;7.90;;
28547;SDS011;15750;49.600;8.746;2022-11-20T13:50:46;10.30;;;7.87;;
28547;SDS011;15750;49.600;8.746;2022-11-20T13:53:29;8.90;;;7.93;;
28547;SDS011;15750;49.600;8.746;2022-11-20T13:56:16;10.33;;;9.20;;
28547;SDS011;15750;49.600;8.746;2022-11-20T13:58:55;11.60;;;9.43;;
28547;SDS011;15750;49.600;8.746;2022-11-20T14:01:40;11.60;;;9.63;;
28547;SDS011;15750;49.600;8.746;2022-11-20T14:04:14;9.90;;;8.90;;
28547;SDS011;15750;49.600;8.746;2022-11-20T14:06:50;9.40;;;8.40;;
28547;SDS011;15750;49.600;8.746;2022-11-20T14:09:26;10.33;;;8.93;;
28547;SDS011;15750;49.600;8.746;2022-11-20T14:11:56;12.37;;;9.63;;
28547;SDS011;15750;49.600;8.746;2022-11-20T14:14:25;11.50;;;9.23;;
28547;SDS011;15750;49.600;8.746;2022-11-20T14:17:07;11.87;;;10.47;;
28547;SDS011;15750;49.600;8.746;2022-11-20T14:19:36;12.00;;;9.70;;
28547;SDS011;15750;49.600;8.746;2022-11-20T14:22:10;13.07;;;9.97;;
28547;SDS011;15750;49.600;8.746;2022-11-20T14:24:46;12.20;;;9.53;;
28547;SDS011;15750;49.600;8.746;2022-11-20T14:27:15;10.53;;;8.77;;
28547;SDS011;15750;49.600;8.746;2022-11-20T14:29:47;9.40;;;8.33;;
28547;SDS011;15750;49.600;8.746;2022-11-20T14:32:18;10.07;;;8.40;;
28547;SDS011;15750;49.600;8.746;2022-11-20T14:34:50;9.27;;;8.23;;
28547;SDS011;15750;49.600;8.746;2022-11-20T14:37:21;9.83;;;8.60;;
28547;SDS011;15750;49.600;8.746;2022-11-20T14:39:53;10.10;;;8.03;;
28547;SDS011;15750;49.600;8.746;2022-11-20T14:42:26;10.17;;;9.07;;
28547;SDS011;15750;49.600;8.746;2022-11-20T14:44:58;11.00;;;8.50;;
28547;SDS011;15750;49.600;8.746;2022-11-20T14:47:29;8.80;;;7.90;;
28547;SDS011;15750;49.600;8.746;2022-11-20T14:49:59;9.77;;;8.77;;
28547;SDS011;15750;49.600;8.746;2022-11-20T14:52:36;11.83;;;9.13;;
28547;SDS011;15750;49.600;8.746;2022-11-20T14:55:07;10.63;;;8.90;;
28547;SDS011;15750;49.600;8.746;2022-11-20T14:57:41;9.50;;;7.87;;
28547;SDS011;15750;49.600;8.746;2022-11-20T15:00:18;11.53;;;7.37;;
28547;SDS011;15750;49.600;8.746;2022-11-20T15:02:50;7.97;;;7.17;;
28547;SDS011;15750;49.600;8.746;2022-11-20T15:05:20;9.00;;;7.70;;
28547;SDS011;15750;49.600;8.746;2022-11-20T15:08:04;8.77;;;7.87;;
28547;SDS011;15750;49.600;8.746;2022-11-20T15:10:35;9.47;;;8.57;;
28547;SDS011;15750;49.600;8.746;2022-11-20T15:13:06;9.83;;;8.83;;
28547;SDS011;15750;49.600;8.746;2022-11-20T15:15:42;12.30;;;9.57;;
28547;SDS011;15750;49.600;8.746;2022-11-20T15:18:15;9.43;;;8.47;;
28547;SDS011;15750;49.600;8.746;2022-11-20T15:20:46;11.17;;;7.13;;
28547;SDS011;15750;49.600;8.746;2022-11-20T15:23:17;8.67;;;6.30;;
28547;SDS011;15750;49.600;8.746;2022-11-20T15:25:47;8.87;;;6.50;;
28547;SDS011;15750;49.600;8.746;2022-11-20T15:28:17;7.20;;;5.93;;
28547;SDS011;15750;49.600;8.746;2022-11-20T15:30:48;6.93;;;5.00;;
28547;SDS011;15750;49.600;8.746;2022-11-20T15:33:18;4.87;;;4.20;;
28547;SDS011;15750;49.600;8.746;2022-11-20T15:35:47;4.17;;;3.70;;
28547;SDS011;15750;49.600;8.746;2022-11-20T15:38:17;4.10;;;3.50;;
28547;SDS011;15750;49.600;8.746;2022-11-20T15:40:46;5.43;;;3.77;;
28547;SDS011;15750;49.600;8.746;2022-11-20T15:43:15;4.83;;;4.20;;
28547;SDS011;15750;49.600;8.746;2022-11-20T15:45:44;21.13;;;15.37;;
28547;SDS011;15750;49.600;8.746;2022-11-20T15:48:18;33.03;;;24.70;;
28547;SDS011;15750;49.600;8.746;2022-11-20T15:50:50;32.53;;;24.60;;
28547;SDS011;15750;49.600;8.746;2022-11-20T15:53:27;59.43;;;43.00;;
28547;SDS011;15750;49.600;8.746;2022-11-20T15:55:55;46.17;;;35.03;;
28547;SDS011;15750;49.600;8.746;2022-11-20T15:58:24;35.73;;;30.73;;
28547;SDS011;15750;49.600;8.746;2022-11-20T16:00:53;25.83;;;21.80;;
28547;SDS011;15750;49.600;8.746;2022-11-20T16:03:23;12.17;;;10.53;;
28547;SDS011;15750;49.600;8.746;2022-11-20T16:05:52;8.80;;;7.17;;
28547;SDS011;15750;49.600;8.746;2022-11-20T16:08:21;6.13;;;5.17;;
28547;SDS011;15750;49.600;8.746;2022-11-20T16:10:51;5.30;;;4.33;;
28547;SDS011;15750;49.600;8.746;2022-11-20T16:13:19;9.63;;;5.03;;